Terminal Aerodrome Forecast
Issued by NWS

Home | Current Version | Previous Version | Text Only | Print | Product List | Glossary On
Versions: 1 2 3 4 5 6 7 8 9 10 11 12
000
FTUS46 KSEW 161124
TAFBLI
TAF
KBLI 161124Z 1612/1712 VRB03KT P6SM OVC100
     FM161900 07005KT P6SM SCT050 OVC080
     FM170200 14014G22KT P6SM -RA SCT040 OVC060=

USA.gov is the U.S. government's official web portal to all federal, state and local government web resources and services.